sensor_id;sensor_type;location;lat;lon;timestamp;P1;P2;P0
78063;PMS5003;67429;51.596;-3.264;2023-03-16T00:01:50;10;10;
78063;PMS5003;67429;51.596;-3.264;2023-03-16T00:04:15;10;10;
78063;PMS5003;67429;51.596;-3.264;2023-03-16T00:06:40;7;7;
78063;PMS5003;67429;51.596;-3.264;2023-03-16T00:09:06;8;8;
78063;PMS5003;67429;51.596;-3.264;2023-03-16T00:11:32;8;8;
78063;PMS5003;67429;51.596;-3.264;2023-03-16T00:13:57;6;6;
78063;PMS5003;67429;51.596;-3.264;2023-03-16T00:16:23;10;10;
78063;PMS5003;67429;51.596;-3.264;2023-03-16T00:18:48;7;7;
78063;PMS5003;67429;51.596;-3.264;2023-03-16T00:21:14;6;6;
78063;PMS5003;67429;51.596;-3.264;2023-03-16T00:23:39;9;9;
78063;PMS5003;67429;51.596;-3.264;2023-03-16T00:26:05;8;7;
78063;PMS5003;67429;51.596;-3.264;2023-03-16T00:28:31;6;6;
78063;PMS5003;67429;51.596;-3.264;2023-03-16T00:30:56;8;7;
78063;PMS5003;67429;51.596;-3.264;2023-03-16T00:33:22;6;6;
78063;PMS5003;67429;51.596;-3.264;2023-03-16T00:35:47;6;6;
78063;PMS5003;67429;51.596;-3.264;2023-03-16T00:38:13;6;5;
78063;PMS5003;67429;51.596;-3.264;2023-03-16T00:40:38;5;5;
78063;PMS5003;67429;51.596;-3.264;2023-03-16T00:43:04;4;4;
78063;PMS5003;67429;51.596;-3.264;2023-03-16T00:45:31;5;4;
78063;PMS5003;67429;51.596;-3.264;2023-03-16T00:47:56;6;6;
78063;PMS5003;67429;51.596;-3.264;2023-03-16T00:50:21;5;5;
78063;PMS5003;67429;51.596;-3.264;2023-03-16T00:52:47;8;6;
78063;PMS5003;67429;51.596;-3.264;2023-03-16T00:55:12;5;5;
78063;PMS5003;67429;51.596;-3.264;2023-03-16T00:57:38;6;6;
78063;PMS5003;67429;51.596;-3.264;2023-03-16T01:00:04;6;6;
78063;PMS5003;67429;51.596;-3.264;2023-03-16T01:02:29;10;10;
78063;PMS5003;67429;51.596;-3.264;2023-03-16T01:04:55;8;8;
78063;PMS5003;67429;51.596;-3.264;2023-03-16T01:07:21;8;7;
78063;PMS5003;67429;51.596;-3.264;2023-03-16T01:09:47;7;7;
78063;PMS5003;67429;51.596;-3.264;2023-03-16T01:12:13;7;7;
78063;PMS5003;67429;51.596;-3.264;2023-03-16T01:14:38;6;5;
78063;PMS5003;67429;51.596;-3.264;2023-03-16T01:17:04;6;6;
78063;PMS5003;67429;51.596;-3.264;2023-03-16T01:19:29;6;6;
78063;PMS5003;67429;51.596;-3.264;2023-03-16T01:21:54;7;7;
78063;PMS5003;67429;51.596;-3.264;2023-03-16T01:24:19;5;5;
78063;PMS5003;67429;51.596;-3.264;2023-03-16T01:26:45;6;6;
78063;PMS5003;67429;51.596;-3.264;2023-03-16T01:29:11;12;9;
78063;PMS5003;67429;51.596;-3.264;2023-03-16T01:31:36;5;5;
78063;PMS5003;67429;51.596;-3.264;2023-03-16T01:34:02;5;5;
78063;PMS5003;67429;51.596;-3.264;2023-03-16T01:36:28;5;5;
78063;PMS5003;67429;51.596;-3.264;2023-03-16T01:38:53;5;5;
78063;PMS5003;67429;51.596;-3.264;2023-03-16T01:41:19;5;5;
78063;PMS5003;67429;51.596;-3.264;2023-03-16T01:43:45;4;3;
78063;PMS5003;67429;51.596;-3.264;2023-03-16T01:46:13;4;4;
78063;PMS5003;67429;51.596;-3.264;2023-03-16T01:48:37;4;4;
78063;PMS5003;67429;51.596;-3.264;2023-03-16T01:51:02;4;4;
78063;PMS5003;67429;51.596;-3.264;2023-03-16T01:53:27;4;4;
78063;PMS5003;67429;51.596;-3.264;2023-03-16T01:55:53;4;4;
78063;PMS5003;67429;51.596;-3.264;2023-03-16T01:58:18;4;4;
78063;PMS5003;67429;51.596;-3.264;2023-03-16T02:00:44;3;3;
78063;PMS5003;67429;51.596;-3.264;2023-03-16T02:03:11;5;5;
78063;PMS5003;67429;51.596;-3.264;2023-03-16T02:05:37;3;3;
78063;PMS5003;67429;51.596;-3.264;2023-03-16T02:08:01;4;3;
78063;PMS5003;67429;51.596;-3.264;2023-03-16T02:10:27;4;3;
78063;PMS5003;67429;51.596;-3.264;2023-03-16T02:12:52;3;2;
78063;PMS5003;67429;51.596;-3.264;2023-03-16T02:15:18;3;3;
78063;PMS5003;67429;51.596;-3.264;2023-03-16T02:17:44;3;2;
78063;PMS5003;67429;51.596;-3.264;2023-03-16T02:20:13;1;1;
78063;PMS5003;67429;51.596;-3.264;2023-03-16T02:22:35;2;2;
78063;PMS5003;67429;51.596;-3.264;2023-03-16T02:25:01;1;1;
78063;PMS5003;67429;51.596;-3.264;2023-03-16T02:27:28;1;1;
78063;PMS5003;67429;51.596;-3.264;2023-03-16T02:29:54;2;2;
78063;PMS5003;67429;51.596;-3.264;2023-03-16T02:32:18;2;1;
78063;PMS5003;67429;51.596;-3.264;2023-03-16T02:34:43;1;1;
78063;PMS5003;67429;51.596;-3.264;2023-03-16T02:37:09;2;2;
78063;PMS5003;67429;51.596;-3.264;2023-03-16T02:39:34;2;2;
78063;PMS5003;67429;51.596;-3.264;2023-03-16T02:42:00;2;1;
78063;PMS5003;67429;51.596;-3.264;2023-03-16T02:44:26;2;1;
78063;PMS5003;67429;51.596;-3.264;2023-03-16T02:46:51;2;2;
78063;PMS5003;67429;51.596;-3.264;2023-03-16T02:49:18;2;2;
78063;PMS5003;67429;51.596;-3.264;2023-03-16T02:51:42;2;1;
78063;PMS5003;67429;51.596;-3.264;2023-03-16T02:54:08;2;2;
78063;PMS5003;67429;51.596;-3.264;2023-03-16T02:56:34;1;1;
78063;PMS5003;67429;51.596;-3.264;2023-03-16T02:58:59;0;0;
78063;PMS5003;67429;51.596;-3.264;2023-03-16T03:01:25;1;1;
78063;PMS5003;67429;51.596;-3.264;2023-03-16T03:03:51;2;2;
78063;PMS5003;67429;51.596;-3.264;2023-03-16T03:06:16;1;1;
78063;PMS5003;67429;51.596;-3.264;2023-03-16T03:08:42;3;2;
78063;PMS5003;67429;51.596;-3.264;2023-03-16T03:11:08;3;3;
78063;PMS5003;67429;51.596;-3.264;2023-03-16T03:13:33;4;3;
78063;PMS5003;67429;51.596;-3.264;2023-03-16T03:15:59;1;1;
78063;PMS5003;67429;51.596;-3.264;2023-03-16T03:18:25;1;1;
78063;PMS5003;67429;51.596;-3.264;2023-03-16T03:20:50;1;1;
78063;PMS5003;67429;51.596;-3.264;2023-03-16T03:23:16;1;1;
78063;PMS5003;67429;51.596;-3.264;2023-03-16T03:25:42;2;2;
78063;PMS5003;67429;51.596;-3.264;2023-03-16T03:28:07;2;1;
78063;PMS5003;67429;51.596;-3.264;2023-03-16T03:30:33;1;1;
78063;PMS5003;67429;51.596;-3.264;2023-03-16T03:32:58;0;0;
78063;PMS5003;67429;51.596;-3.264;2023-03-16T03:35:24;1;1;
78063;PMS5003;67429;51.596;-3.264;2023-03-16T03:37:50;2;2;
78063;PMS5003;67429;51.596;-3.264;2023-03-16T03:40:15;2;2;
78063;PMS5003;67429;51.596;-3.264;2023-03-16T03:42:41;6;5;
78063;PMS5003;67429;51.596;-3.264;2023-03-16T03:45:07;5;4;
78063;PMS5003;67429;51.596;-3.264;2023-03-16T03:47:32;4;3;
78063;PMS5003;67429;51.596;-3.264;2023-03-16T03:49:58;4;3;
78063;PMS5003;67429;51.596;-3.264;2023-03-16T03:52:23;6;3;
78063;PMS5003;67429;51.596;-3.264;2023-03-16T03:54:49;2;2;
78063;PMS5003;67429;51.596;-3.264;2023-03-16T03:57:14;3;3;
78063;PMS5003;67429;51.596;-3.264;2023-03-16T03:59:40;2;2;
78063;PMS5003;67429;51.596;-3.264;2023-03-16T04:02:06;2;2;
78063;PMS5003;67429;51.596;-3.264;2023-03-16T04:04:32;2;2;
78063;PMS5003;67429;51.596;-3.264;2023-03-16T04:06:57;3;3;
78063;PMS5003;67429;51.596;-3.264;2023-03-16T04:09:23;4;4;
78063;PMS5003;67429;51.596;-3.264;2023-03-16T04:11:48;2;2;
78063;PMS5003;67429;51.596;-3.264;2023-03-16T04:14:14;3;2;
78063;PMS5003;67429;51.596;-3.264;2023-03-16T04:16:40;3;3;
78063;PMS5003;67429;51.596;-3.264;2023-03-16T04:19:05;3;3;
78063;PMS5003;67429;51.596;-3.264;2023-03-16T04:21:31;3;3;
78063;PMS5003;67429;51.596;-3.264;2023-03-16T04:23:57;4;4;
78063;PMS5003;67429;51.596;-3.264;2023-03-16T04:26:22;4;4;
78063;PMS5003;67429;51.596;-3.264;2023-03-16T04:28:48;3;3;
78063;PMS5003;67429;51.596;-3.264;2023-03-16T04:31:14;5;5;
78063;PMS5003;67429;51.596;-3.264;2023-03-16T04:33:39;2;2;
78063;PMS5003;67429;51.596;-3.264;2023-03-16T04:36:05;4;2;
78063;PMS5003;67429;51.596;-3.264;2023-03-16T04:38:31;3;2;
78063;PMS5003;67429;51.596;-3.264;2023-03-16T04:40:56;3;2;
78063;PMS5003;67429;51.596;-3.264;2023-03-16T04:43:22;3;3;
78063;PMS5003;67429;51.596;-3.264;2023-03-16T04:45:47;2;2;
78063;PMS5003;67429;51.596;-3.264;2023-03-16T04:48:13;3;3;
78063;PMS5003;67429;51.596;-3.264;2023-03-16T04:50:39;4;3;
78063;PMS5003;67429;51.596;-3.264;2023-03-16T04:53:04;3;3;
78063;PMS5003;67429;51.596;-3.264;2023-03-16T04:55:30;4;4;
78063;PMS5003;67429;51.596;-3.264;2023-03-16T04:57:56;5;5;
78063;PMS5003;67429;51.596;-3.264;2023-03-16T05:00:21;4;4;
78063;PMS5003;67429;51.596;-3.264;2023-03-16T05:02:47;6;6;
78063;PMS5003;67429;51.596;-3.264;2023-03-16T05:05:13;3;3;
78063;PMS5003;67429;51.596;-3.264;2023-03-16T05:07:38;3;3;
78063;PMS5003;67429;51.596;-3.264;2023-03-16T05:10:04;3;3;
78063;PMS5003;67429;51.596;-3.264;2023-03-16T05:12:29;2;2;
78063;PMS5003;67429;51.596;-3.264;2023-03-16T05:14:55;4;4;
78063;PMS5003;67429;51.596;-3.264;2023-03-16T05:17:20;2;2;
78063;PMS5003;67429;51.596;-3.264;2023-03-16T05:19:46;4;4;
78063;PMS5003;67429;51.596;-3.264;2023-03-16T05:22:12;2;2;
78063;PMS5003;67429;51.596;-3.264;2023-03-16T05:24:37;4;3;
78063;PMS5003;67429;51.596;-3.264;2023-03-16T05:27:03;3;3;
78063;PMS5003;67429;51.596;-3.264;2023-03-16T05:29:29;5;4;
78063;PMS5003;67429;51.596;-3.264;2023-03-16T05:31:54;2;2;
78063;PMS5003;67429;51.596;-3.264;2023-03-16T05:34:20;3;3;
78063;PMS5003;67429;51.596;-3.264;2023-03-16T05:36:45;5;4;
78063;PMS5003;67429;51.596;-3.264;2023-03-16T05:39:11;4;4;
78063;PMS5003;67429;51.596;-3.264;2023-03-16T05:41:36;4;4;
78063;PMS5003;67429;51.596;-3.264;2023-03-16T05:44:02;3;3;
78063;PMS5003;67429;51.596;-3.264;2023-03-16T05:46:28;4;3;
78063;PMS5003;67429;51.596;-3.264;2023-03-16T05:48:53;4;4;
78063;PMS5003;67429;51.596;-3.264;2023-03-16T05:51:19;6;5;
78063;PMS5003;67429;51.596;-3.264;2023-03-16T05:53:44;5;5;
78063;PMS5003;67429;51.596;-3.264;2023-03-16T05:56:10;4;4;
78063;PMS5003;67429;51.596;-3.264;2023-03-16T05:58:36;3;3;
78063;PMS5003;67429;51.596;-3.264;2023-03-16T06:01:02;3;3;
78063;PMS5003;67429;51.596;-3.264;2023-03-16T06:03:27;3;3;
78063;PMS5003;67429;51.596;-3.264;2023-03-16T06:05:52;4;4;
78063;PMS5003;67429;51.596;-3.264;2023-03-16T06:08:18;4;4;
78063;PMS5003;67429;51.596;-3.264;2023-03-16T06:10:45;5;5;
78063;PMS5003;67429;51.596;-3.264;2023-03-16T06:13:09;4;4;
78063;PMS5003;67429;51.596;-3.264;2023-03-16T06:15:35;7;5;
78063;PMS5003;67429;51.596;-3.264;2023-03-16T06:18:01;3;3;
78063;PMS5003;67429;51.596;-3.264;2023-03-16T06:20:26;3;3;
78063;PMS5003;67429;51.596;-3.264;2023-03-16T06:22:52;6;4;
78063;PMS5003;67429;51.596;-3.264;2023-03-16T06:25:18;5;5;
78063;PMS5003;67429;51.596;-3.264;2023-03-16T06:27:43;3;3;
78063;PMS5003;67429;51.596;-3.264;2023-03-16T06:30:10;4;4;
78063;PMS5003;67429;51.596;-3.264;2023-03-16T06:32:35;5;4;
78063;PMS5003;67429;51.596;-3.264;2023-03-16T06:35:00;5;4;
78063;PMS5003;67429;51.596;-3.264;2023-03-16T06:37:26;4;4;
78063;PMS5003;67429;51.596;-3.264;2023-03-16T06:39:52;2;2;
78063;PMS5003;67429;51.596;-3.264;2023-03-16T06:42:17;6;5;
78063;PMS5003;67429;51.596;-3.264;2023-03-16T06:44:43;4;4;
78063;PMS5003;67429;51.596;-3.264;2023-03-16T06:47:09;6;5;
78063;PMS5003;67429;51.596;-3.264;2023-03-16T06:49:34;5;5;
78063;PMS5003;67429;51.596;-3.264;2023-03-16T06:52:00;4;4;
78063;PMS5003;67429;51.596;-3.264;2023-03-16T06:54:26;6;4;
78063;PMS5003;67429;51.596;-3.264;2023-03-16T06:56:51;5;4;
78063;PMS5003;67429;51.596;-3.264;2023-03-16T06:59:17;5;4;
78063;PMS5003;67429;51.596;-3.264;2023-03-16T07:01:42;5;3;
78063;PMS5003;67429;51.596;-3.264;2023-03-16T07:04:08;4;4;
78063;PMS5003;67429;51.596;-3.264;2023-03-16T07:06:33;4;3;
78063;PMS5003;67429;51.596;-3.264;2023-03-16T07:08:59;5;5;
78063;PMS5003;67429;51.596;-3.264;2023-03-16T07:11:25;4;4;
78063;PMS5003;67429;51.596;-3.264;2023-03-16T07:13:50;3;3;
78063;PMS5003;67429;51.596;-3.264;2023-03-16T07:16:16;5;4;
78063;PMS5003;67429;51.596;-3.264;2023-03-16T07:18:42;4;3;
78063;PMS5003;67429;51.596;-3.264;2023-03-16T07:21:07;5;5;
78063;PMS5003;67429;51.596;-3.264;2023-03-16T07:23:33;4;4;
78063;PMS5003;67429;51.596;-3.264;2023-03-16T07:25:59;4;4;
78063;PMS5003;67429;51.596;-3.264;2023-03-16T07:28:24;3;3;
78063;PMS5003;67429;51.596;-3.264;2023-03-16T07:30:49;6;5;
78063;PMS5003;67429;51.596;-3.264;2023-03-16T07:33:15;7;4;
78063;PMS5003;67429;51.596;-3.264;2023-03-16T07:35:41;4;4;
78063;PMS5003;67429;51.596;-3.264;2023-03-16T07:38:06;7;4;
78063;PMS5003;67429;51.596;-3.264;2023-03-16T07:40:32;5;4;
78063;PMS5003;67429;51.596;-3.264;2023-03-16T07:42:57;7;5;
78063;PMS5003;67429;51.596;-3.264;2023-03-16T07:45:24;5;5;
78063;PMS5003;67429;51.596;-3.264;2023-03-16T07:47:49;6;5;
78063;PMS5003;67429;51.596;-3.264;2023-03-16T07:50:14;6;5;
78063;PMS5003;67429;51.596;-3.264;2023-03-16T07:52:40;6;5;
78063;PMS5003;67429;51.596;-3.264;2023-03-16T07:55:05;8;7;
78063;PMS5003;67429;51.596;-3.264;2023-03-16T07:57:31;4;4;
78063;PMS5003;67429;51.596;-3.264;2023-03-16T07:59:57;6;6;
78063;PMS5003;67429;51.596;-3.264;2023-03-16T08:02:22;4;4;
78063;PMS5003;67429;51.596;-3.264;2023-03-16T08:04:47;5;5;
78063;PMS5003;67429;51.596;-3.264;2023-03-16T08:07:14;4;4;
78063;PMS5003;67429;51.596;-3.264;2023-03-16T08:09:39;4;4;
78063;PMS5003;67429;51.596;-3.264;2023-03-16T08:12:05;4;4;
78063;PMS5003;67429;51.596;-3.264;2023-03-16T08:14:29;4;4;
78063;PMS5003;67429;51.596;-3.264;2023-03-16T08:16:55;7;5;
78063;PMS5003;67429;51.596;-3.264;2023-03-16T08:19:21;6;5;
78063;PMS5003;67429;51.596;-3.264;2023-03-16T08:21:46;4;4;
78063;PMS5003;67429;51.596;-3.264;2023-03-16T08:24:12;5;5;
78063;PMS5003;67429;51.596;-3.264;2023-03-16T08:26:37;3;3;
78063;PMS5003;67429;51.596;-3.264;2023-03-16T08:29:02;4;3;
78063;PMS5003;67429;51.596;-3.264;2023-03-16T08:31:28;4;4;
78063;PMS5003;67429;51.596;-3.264;2023-03-16T08:33:54;5;4;
78063;PMS5003;67429;51.596;-3.264;2023-03-16T08:36:19;5;4;
78063;PMS5003;67429;51.596;-3.264;2023-03-16T08:38:45;3;3;
78063;PMS5003;67429;51.596;-3.264;2023-03-16T08:41:11;5;5;
78063;PMS5003;67429;51.596;-3.264;2023-03-16T08:43:37;6;6;
78063;PMS5003;67429;51.596;-3.264;2023-03-16T08:46:02;5;3;
78063;PMS5003;67429;51.596;-3.264;2023-03-16T08:48:28;5;4;
78063;PMS5003;67429;51.596;-3.264;2023-03-16T08:50:53;3;3;
78063;PMS5003;67429;51.596;-3.264;2023-03-16T08:53:19;5;4;
78063;PMS5003;67429;51.596;-3.264;2023-03-16T08:55:45;3;3;
78063;PMS5003;67429;51.596;-3.264;2023-03-16T08:58:10;5;4;
78063;PMS5003;67429;51.596;-3.264;2023-03-16T09:00:36;5;5;
78063;PMS5003;67429;51.596;-3.264;2023-03-16T09:03:01;4;4;
78063;PMS5003;67429;51.596;-3.264;2023-03-16T09:05:27;4;4;
78063;PMS5003;67429;51.596;-3.264;2023-03-16T09:07:53;4;4;
78063;PMS5003;67429;51.596;-3.264;2023-03-16T09:10:19;4;4;
78063;PMS5003;67429;51.596;-3.264;2023-03-16T09:12:44;5;4;
78063;PMS5003;67429;51.596;-3.264;2023-03-16T09:15:10;4;4;
78063;PMS5003;67429;51.596;-3.264;2023-03-16T09:17:35;5;5;
78063;PMS5003;67429;51.596;-3.264;2023-03-16T09:20:01;4;4;
78063;PMS5003;67429;51.596;-3.264;2023-03-16T09:22:27;6;5;
78063;PMS5003;67429;51.596;-3.264;2023-03-16T09:24:52;6;6;
78063;PMS5003;67429;51.596;-3.264;2023-03-16T09:27:18;7;6;
78063;PMS5003;67429;51.596;-3.264;2023-03-16T09:29:44;5;5;
78063;PMS5003;67429;51.596;-3.264;2023-03-16T09:32:09;5;4;
78063;PMS5003;67429;51.596;-3.264;2023-03-16T09:34:34;6;5;
78063;PMS5003;67429;51.596;-3.264;2023-03-16T09:37:00;4;4;
78063;PMS5003;67429;51.596;-3.264;2023-03-16T09:39:26;6;5;
78063;PMS5003;67429;51.596;-3.264;2023-03-16T09:41:52;5;5;
78063;PMS5003;67429;51.596;-3.264;2023-03-16T09:44:22;7;7;
78063;PMS5003;67429;51.596;-3.264;2023-03-16T09:46:44;6;6;
78063;PMS5003;67429;51.596;-3.264;2023-03-16T09:49:09;5;5;
78063;PMS5003;67429;51.596;-3.264;2023-03-16T09:51:35;11;6;
78063;PMS5003;67429;51.596;-3.264;2023-03-16T09:54:01;7;5;
78063;PMS5003;67429;51.596;-3.264;2023-03-16T09:56:27;7;6;
78063;PMS5003;67429;51.596;-3.264;2023-03-16T09:58:51;7;6;
78063;PMS5003;67429;51.596;-3.264;2023-03-16T10:01:19;6;6;
78063;PMS5003;67429;51.596;-3.264;2023-03-16T10:03:48;7;7;
78063;PMS5003;67429;51.596;-3.264;2023-03-16T10:06:09;10;10;
78063;PMS5003;67429;51.596;-3.264;2023-03-16T10:08:35;8;8;
78063;PMS5003;67429;51.596;-3.264;2023-03-16T10:11:04;8;8;
78063;PMS5003;67429;51.596;-3.264;2023-03-16T10:13:27;7;7;
78063;PMS5003;67429;51.596;-3.264;2023-03-16T10:15:50;7;7;
78063;PMS5003;67429;51.596;-3.264;2023-03-16T10:18:16;6;5;
78063;PMS5003;67429;51.596;-3.264;2023-03-16T10:20:40;6;6;
78063;PMS5003;67429;51.596;-3.264;2023-03-16T10:23:10;5;5;
78063;PMS5003;67429;51.596;-3.264;2023-03-16T10:25:34;7;7;
78063;PMS5003;67429;51.596;-3.264;2023-03-16T10:27:57;6;6;
78063;PMS5003;67429;51.596;-3.264;2023-03-16T10:30:24;7;7;
78063;PMS5003;67429;51.596;-3.264;2023-03-16T10:32:49;9;7;
78063;PMS5003;67429;51.596;-3.264;2023-03-16T10:35:17;8;7;
78063;PMS5003;67429;51.596;-3.264;2023-03-16T10:37:40;6;6;
78063;PMS5003;67429;51.596;-3.264;2023-03-16T10:40:06;6;5;
78063;PMS5003;67429;51.596;-3.264;2023-03-16T10:42:34;7;7;
78063;PMS5003;67429;51.596;-3.264;2023-03-16T10:44:57;6;6;
78063;PMS5003;67429;51.596;-3.264;2023-03-16T10:47:22;9;8;
78063;PMS5003;67429;51.596;-3.264;2023-03-16T10:49:47;8;7;
78063;PMS5003;67429;51.596;-3.264;2023-03-16T10:52:15;14;13;
78063;PMS5003;67429;51.596;-3.264;2023-03-16T10:54:39;6;6;
78063;PMS5003;67429;51.596;-3.264;2023-03-16T10:59:30;7;7;
78063;PMS5003;67429;51.596;-3.264;2023-03-16T11:01:55;9;8;
78063;PMS5003;67429;51.596;-3.264;2023-03-16T11:04:21;7;7;
78063;PMS5003;67429;51.596;-3.264;2023-03-16T11:06:47;7;7;
78063;PMS5003;67429;51.596;-3.264;2023-03-16T11:09:13;9;9;
78063;PMS5003;67429;51.596;-3.264;2023-03-16T11:11:37;7;6;
78063;PMS5003;67429;51.596;-3.264;2023-03-16T11:14:09;6;5;
78063;PMS5003;67429;51.596;-3.264;2023-03-16T11:16:29;7;7;
78063;PMS5003;67429;51.596;-3.264;2023-03-16T11:18:55;7;6;
78063;PMS5003;67429;51.596;-3.264;2023-03-16T11:21:21;6;6;
78063;PMS5003;67429;51.596;-3.264;2023-03-16T11:23:46;6;5;
78063;PMS5003;67429;51.596;-3.264;2023-03-16T11:26:12;7;7;
78063;PMS5003;67429;51.596;-3.264;2023-03-16T11:28:37;6;6;
78063;PMS5003;67429;51.596;-3.264;2023-03-16T11:31:05;7;6;
78063;PMS5003;67429;51.596;-3.264;2023-03-16T11:33:28;6;6;
78063;PMS5003;67429;51.596;-3.264;2023-03-16T11:35:55;5;5;
78063;PMS5003;67429;51.596;-3.264;2023-03-16T11:38:19;5;5;
78063;PMS5003;67429;51.596;-3.264;2023-03-16T11:40:47;5;5;
78063;PMS5003;67429;51.596;-3.264;2023-03-16T11:43:14;5;5;
78063;PMS5003;67429;51.596;-3.264;2023-03-16T11:45:37;6;6;
78063;PMS5003;67429;51.596;-3.264;2023-03-16T11:48:03;10;10;
78063;PMS5003;67429;51.596;-3.264;2023-03-16T11:50:27;6;6;
78063;PMS5003;67429;51.596;-3.264;2023-03-16T11:52:53;5;4;
78063;PMS5003;67429;51.596;-3.264;2023-03-16T11:55:21;5;5;
78063;PMS5003;67429;51.596;-3.264;2023-03-16T11:57:46;8;7;
78063;PMS5003;67429;51.596;-3.264;2023-03-16T12:00:12;8;8;
78063;PMS5003;67429;51.596;-3.264;2023-03-16T12:02:38;6;6;
78063;PMS5003;67429;51.596;-3.264;2023-03-16T12:07:31;6;6;
78063;PMS5003;67429;51.596;-3.264;2023-03-16T12:09:55;6;6;
78063;PMS5003;67429;51.596;-3.264;2023-03-16T12:12:21;8;8;
78063;PMS5003;67429;51.596;-3.264;2023-03-16T12:14:44;7;6;
78063;PMS5003;67429;51.596;-3.264;2023-03-16T12:17:10;7;6;
78063;PMS5003;67429;51.596;-3.264;2023-03-16T12:19:38;7;7;
78063;PMS5003;67429;51.596;-3.264;2023-03-16T12:22:01;7;7;
78063;PMS5003;67429;51.596;-3.264;2023-03-16T12:24:26;10;8;
78063;PMS5003;67429;51.596;-3.264;2023-03-16T12:26:51;8;8;
78063;PMS5003;67429;51.596;-3.264;2023-03-16T12:29:18;6;6;
78063;PMS5003;67429;51.596;-3.264;2023-03-16T12:31:43;8;7;
78063;PMS5003;67429;51.596;-3.264;2023-03-16T12:34:09;8;8;
78063;PMS5003;67429;51.596;-3.264;2023-03-16T12:38:59;10;8;
78063;PMS5003;67429;51.596;-3.264;2023-03-16T12:41:25;7;5;
78063;PMS5003;67429;51.596;-3.264;2023-03-16T12:43:57;7;7;
78063;PMS5003;67429;51.596;-3.264;2023-03-16T12:46:18;8;7;
78063;PMS5003;67429;51.596;-3.264;2023-03-16T12:48:41;6;6;
78063;PMS5003;67429;51.596;-3.264;2023-03-16T12:51:06;7;7;
78063;PMS5003;67429;51.596;-3.264;2023-03-16T12:53:40;5;5;
78063;PMS5003;67429;51.596;-3.264;2023-03-16T12:55:58;7;6;
78063;PMS5003;67429;51.596;-3.264;2023-03-16T12:58:23;5;5;
78063;PMS5003;67429;51.596;-3.264;2023-03-16T13:00:53;5;5;
78063;PMS5003;67429;51.596;-3.264;2023-03-16T13:03:15;6;5;
78063;PMS5003;67429;51.596;-3.264;2023-03-16T13:05:43;7;5;
78063;PMS5003;67429;51.596;-3.264;2023-03-16T13:08:06;7;6;
78063;PMS5003;67429;51.596;-3.264;2023-03-16T13:10:31;5;5;
78063;PMS5003;67429;51.596;-3.264;2023-03-16T13:15:26;8;7;
78063;PMS5003;67429;51.596;-3.264;2023-03-16T13:17:49;7;7;
78063;PMS5003;67429;51.596;-3.264;2023-03-16T13:22:41;7;6;
78063;PMS5003;67429;51.596;-3.264;2023-03-16T13:27:32;8;7;
78063;PMS5003;67429;51.596;-3.264;2023-03-16T13:29:57;8;8;
78063;PMS5003;67429;51.596;-3.264;2023-03-16T13:32:21;5;5;
78063;PMS5003;67429;51.596;-3.264;2023-03-16T13:34:48;6;6;
78063;PMS5003;67429;51.596;-3.264;2023-03-16T13:37:13;7;7;
78063;PMS5003;67429;51.596;-3.264;2023-03-16T13:39:40;5;5;
78063;PMS5003;67429;51.596;-3.264;2023-03-16T13:42:11;6;6;
78063;PMS5003;67429;51.596;-3.264;2023-03-16T13:46:28;7;7;
78063;PMS5003;67429;51.596;-3.264;2023-03-16T13:48:50;7;7;
78063;PMS5003;67429;51.596;-3.264;2023-03-16T13:51:16;8;7;
78063;PMS5003;67429;51.596;-3.264;2023-03-16T13:53:41;8;7;
78063;PMS5003;67429;51.596;-3.264;2023-03-16T13:56:07;8;7;
78063;PMS5003;67429;51.596;-3.264;2023-03-16T13:58:33;7;7;
78063;PMS5003;67429;51.596;-3.264;2023-03-16T14:00:59;10;8;
78063;PMS5003;67429;51.596;-3.264;2023-03-16T14:05:49;6;6;
78063;PMS5003;67429;51.596;-3.264;2023-03-16T14:08:16;6;6;
78063;PMS5003;67429;51.596;-3.264;2023-03-16T14:10:40;8;7;
78063;PMS5003;67429;51.596;-3.264;2023-03-16T14:13:06;7;7;
78063;PMS5003;67429;51.596;-3.264;2023-03-16T14:15:31;8;8;
78063;PMS5003;67429;51.596;-3.264;2023-03-16T14:18:01;6;6;
78063;PMS5003;67429;51.596;-3.264;2023-03-16T14:20:23;4;4;
78063;PMS5003;67429;51.596;-3.264;2023-03-16T14:22:49;6;5;
78063;PMS5003;67429;51.596;-3.264;2023-03-16T14:25:16;5;5;
78063;PMS5003;67429;51.596;-3.264;2023-03-16T14:27:42;6;5;
78063;PMS5003;67429;51.596;-3.264;2023-03-16T14:32:31;5;5;
78063;PMS5003;67429;51.596;-3.264;2023-03-16T14:35:00;4;4;
78063;PMS5003;67429;51.596;-3.264;2023-03-16T14:37:32;4;4;
78063;PMS5003;67429;51.596;-3.264;2023-03-16T14:42:15;4;4;
78063;PMS5003;67429;51.596;-3.264;2023-03-16T14:44:39;4;4;
78063;PMS5003;67429;51.596;-3.264;2023-03-16T14:47:05;5;5;
78063;PMS5003;67429;51.596;-3.264;2023-03-16T14:49:31;7;7;
78063;PMS5003;67429;51.596;-3.264;2023-03-16T14:51:57;13;13;
78063;PMS5003;67429;51.596;-3.264;2023-03-16T14:54:21;36;31;
78063;PMS5003;67429;51.596;-3.264;2023-03-16T14:56:47;25;24;
78063;PMS5003;67429;51.596;-3.264;2023-03-16T14:59:12;23;22;
78063;PMS5003;67429;51.596;-3.264;2023-03-16T15:01:37;26;26;
78063;PMS5003;67429;51.596;-3.264;2023-03-16T15:04:02;29;29;
78063;PMS5003;67429;51.596;-3.264;2023-03-16T15:06:28;11;10;
78063;PMS5003;67429;51.596;-3.264;2023-03-16T15:08:54;16;15;
78063;PMS5003;67429;51.596;-3.264;2023-03-16T15:11:20;12;12;
78063;PMS5003;67429;51.596;-3.264;2023-03-16T15:13:45;26;25;
78063;PMS5003;67429;51.596;-3.264;2023-03-16T15:16:11;31;29;
78063;PMS5003;67429;51.596;-3.264;2023-03-16T15:18:36;27;26;
78063;PMS5003;67429;51.596;-3.264;2023-03-16T15:21:01;33;31;
78063;PMS5003;67429;51.596;-3.264;2023-03-16T15:23:26;23;23;
78063;PMS5003;67429;51.596;-3.264;2023-03-16T15:25:52;30;30;
78063;PMS5003;67429;51.596;-3.264;2023-03-16T15:28:18;23;22;
78063;PMS5003;67429;51.596;-3.264;2023-03-16T15:30:44;22;21;
78063;PMS5003;67429;51.596;-3.264;2023-03-16T15:33:09;19;17;
78063;PMS5003;67429;51.596;-3.264;2023-03-16T15:35:34;14;14;
78063;PMS5003;67429;51.596;-3.264;2023-03-16T15:38:00;15;14;
78063;PMS5003;67429;51.596;-3.264;2023-03-16T15:40:27;11;11;
78063;PMS5003;67429;51.596;-3.264;2023-03-16T15:42:51;16;16;
78063;PMS5003;67429;51.596;-3.264;2023-03-16T15:45:17;15;14;
78063;PMS5003;67429;51.596;-3.264;2023-03-16T15:47:42;13;13;
78063;PMS5003;67429;51.596;-3.264;2023-03-16T15:50:08;9;9;
78063;PMS5003;67429;51.596;-3.264;2023-03-16T15:52:33;11;11;
78063;PMS5003;67429;51.596;-3.264;2023-03-16T15:54:58;7;5;
78063;PMS5003;67429;51.596;-3.264;2023-03-16T15:57:23;10;9;
78063;PMS5003;67429;51.596;-3.264;2023-03-16T15:59:48;11;10;
78063;PMS5003;67429;51.596;-3.264;2023-03-16T16:04:40;4;4;
78063;PMS5003;67429;51.596;-3.264;2023-03-16T16:07:08;5;5;
78063;PMS5003;67429;51.596;-3.264;2023-03-16T16:09:31;13;13;
78063;PMS5003;67429;51.596;-3.264;2023-03-16T16:11:56;8;8;
78063;PMS5003;67429;51.596;-3.264;2023-03-16T16:14:28;9;9;
78063;PMS5003;67429;51.596;-3.264;2023-03-16T16:16:56;5;5;
78063;PMS5003;67429;51.596;-3.264;2023-03-16T16:19:24;2;2;
78063;PMS5003;67429;51.596;-3.264;2023-03-16T16:24:14;8;8;
78063;PMS5003;67429;51.596;-3.264;2023-03-16T22:12:30;20;20;
78063;PMS5003;67429;51.596;-3.264;2023-03-16T22:14:55;18;16;
78063;PMS5003;67429;51.596;-3.264;2023-03-16T22:17:21;14;14;
78063;PMS5003;67429;51.596;-3.264;2023-03-16T22:19:46;18;17;
78063;PMS5003;67429;51.596;-3.264;2023-03-16T22:22:11;19;18;
78063;PMS5003;67429;51.596;-3.264;2023-03-16T22:24:36;15;14;
78063;PMS5003;67429;51.596;-3.264;2023-03-16T22:27:02;13;11;
78063;PMS5003;67429;51.596;-3.264;2023-03-16T22:29:28;15;14;
78063;PMS5003;67429;51.596;-3.264;2023-03-16T22:31:59;11;11;
78063;PMS5003;67429;51.596;-3.264;2023-03-16T22:34:23;18;17;